Time;durP1;ratioP1;P1;durP2;ratioP2;P2;SDS_P1;SDS_P2;PMS_P1;PMS_P2;Temp;Humidity;BMP_temperature;BMP_pressure;BME280_temperature;BME280_humidity;BME280_pressure;Samples;Min_cycle;Max_cycle;Signal;HPM_P1;HPM_P2
2022/08/25 00:00:57;;;;;;;;;;;25.70;51.50;;;23.99;53.65;101705.22;12248444;19;19921;-84
2022/08/25 00:04:59;;;;;;;;;;;25.60;51.40;;;24.03;53.62;101705.75;12249759;19;19911;-86
2022/08/25 00:09:00;;;;;;;;;;;25.60;51.40;;;24.13;53.26;101722.56;12248787;19;19930;-84
2022/08/25 00:13:03;;;;;;;;;;;25.60;51.50;;;24.13;53.62;101708.38;12246357;19;20012;-84
2022/08/25 00:17:05;;;;;;;;;;;25.60;51.40;;;24.14;53.35;101710.91;12246670;19;19922;-84
2022/08/25 00:21:07;;;;;;;;;;;25.60;51.40;;;23.83;53.62;101654.34;12246916;19;19948;-85
2022/08/25 00:25:09;;;;;;;;;;;25.60;51.40;;;24.15;53.59;101698.41;12246546;19;20326;-86
2022/08/25 00:29:10;;;;;;;;;;;25.70;51.50;;;24.12;53.57;101704.03;12250136;19;19919;-86
2022/08/25 00:33:12;;;;;;;;;;;25.60;51.40;;;24.11;53.46;101703.19;12246525;19;20356;-85
2022/08/25 00:37:15;;;;;;;;;;;25.60;51.30;;;24.03;53.37;101685.28;12247185;19;19982;-85
2022/08/25 00:41:21;;;;;;;;;;;25.60;51.30;;;24.07;53.34;101707.16;12247531;19;19939;-84
2022/08/25 00:45:22;;;;;;;;;;;25.60;51.30;;;23.86;53.49;101675.38;12249297;19;20334;-86
2022/08/25 00:49:41;;;;;;;;;;;25.60;51.20;;;23.97;53.40;101696.53;12247061;19;20609;-85
2022/08/25 00:53:43;;;;;;;;;;;25.50;51.20;;;23.93;53.65;101697.81;12247113;19;19915;-84
2022/08/25 00:57:51;;;;;;;;;;;25.50;51.20;;;23.85;53.85;101690.56;12246315;19;19922;-85
2022/08/25 01:01:53;;;;;;;;;;;25.50;51.30;;;23.73;53.86;101685.53;12246129;19;19911;-84
2022/08/25 01:05:55;;;;;;;;;;;25.40;51.30;;;23.74;53.62;101690.75;12249299;19;20352;-85
2022/08/25 01:09:56;;;;;;;;;;;25.40;51.30;;;23.49;53.85;101649.53;12243840;19;19938;-86
2022/08/25 01:14:02;;;;;;;;;;;25.30;51.30;;;23.66;53.86;101685.28;12246035;19;19923;-84
2022/08/25 01:18:03;;;;;;;;;;;25.40;51.40;;;23.75;53.65;101697.75;12245381;19;19918;-86
2022/08/25 01:22:05;;;;;;;;;;;25.30;51.40;;;23.21;53.93;101610.50;12246145;19;19915;-84
2022/08/25 01:26:14;;;;;;;;;;;25.30;51.40;;;23.68;53.78;101685.94;12249039;19;19925;-84
2022/08/25 01:30:15;;;;;;;;;;;25.20;51.40;;;23.63;53.91;101690.91;12242317;19;19919;-85
2022/08/25 01:34:18;;;;;;;;;;;25.20;51.40;;;23.56;53.85;101681.81;12246438;19;19926;-84
2022/08/25 01:38:20;;;;;;;;;;;25.10;51.30;;;23.60;54.10;101699.19;12253578;19;19925;-85
2022/08/25 01:42:41;;;;;;;;;;;25.10;51.40;;;23.62;53.94;101700.72;12257587;19;19923;-84
2022/08/25 01:46:43;;;;;;;;;;;25.10;51.40;;;23.54;54.06;101697.09;12260208;19;20298;-85
2022/08/25 01:50:44;;;;;;;;;;;25.10;51.40;;;23.46;54.14;101689.81;12259163;19;19925;-84
2022/08/25 01:54:46;;;;;;;;;;;25.10;51.40;;;23.42;53.80;101683.94;12259490;19;20453;-84
2022/08/25 01:58:48;;;;;;;;;;;25.20;51.50;;;23.27;53.97;101671.22;12256347;19;19906;-84
2022/08/25 02:02:51;;;;;;;;;;;25.00;51.40;;;23.35;54.15;101674.84;12255362;19;19907;-84
2022/08/25 02:06:52;;;;;;;;;;;24.90;51.50;;;23.32;53.98;101676.97;12259462;19;19919;-84
2022/08/25 02:10:54;;;;;;;;;;;24.90;51.50;;;23.25;53.98;101668.72;12256308;19;19911;-85
2022/08/25 02:14:56;;;;;;;;;;;24.90;51.50;;;23.08;54.05;101650.78;12258039;19;19931;-85
2022/08/25 02:18:59;;;;;;;;;;;25.10;51.60;;;23.15;54.26;101670.56;12255087;19;19918;-85
2022/08/25 02:23:00;;;;;;;;;;;24.80;51.90;;;23.19;54.03;101678.09;12255551;19;19915;-84
2022/08/25 02:27:02;;;;;;;;;;;24.80;51.50;;;22.80;53.94;101621.38;12255904;19;19927;-84
2022/08/25 02:31:04;;;;;;;;;;;24.70;51.40;;;22.76;54.29;101619.97;12254836;19;19915;-85
2022/08/25 02:35:07;;;;;;;;;;;24.70;51.40;;;22.90;53.93;101653.31;12256783;19;19922;-85
2022/08/25 02:39:09;;;;;;;;;;;24.60;51.40;;;22.87;54.32;101637.63;12255010;19;19923;-85
2022/08/25 02:43:11;;;;;;;;;;;24.70;51.80;;;22.86;54.01;101646.59;12253258;19;19915;-84
2022/08/25 02:47:12;;;;;;;;;;;24.50;51.50;;;22.67;54.31;101618.16;12254559;19;19918;-85
2022/08/25 02:51:14;;;;;;;;;;;24.50;51.60;;;22.86;54.12;101652.75;12250649;19;19933;-85
2022/08/25 02:55:17;;;;;;;;;;;24.40;51.50;;;22.82;54.37;101656.72;12256000;19;19915;-86
2022/08/25 02:59:18;;;;;;;;;;;24.40;51.60;;;22.70;54.10;101642.69;12257285;19;19919;-84
2022/08/25 03:03:20;;;;;;;;;;;24.40;51.60;;;22.73;54.11;101646.88;12257029;19;19935;-85
2022/08/25 03:07:22;;;;;;;;;;;24.40;51.70;;;22.19;54.17;101555.16;12255737;19;19911;-85
2022/08/25 03:11:25;;;;;;;;;;;24.30;51.70;;;22.63;54.53;101636.25;12253034;19;19915;-84
2022/08/25 03:15:26;;;;;;;;;;;24.30;51.70;;;22.55;54.52;101633.47;12252342;19;19956;-85
2022/08/25 03:19:28;;;;;;;;;;;24.20;51.70;;;22.50;54.25;101631.22;12254362;19;19909;-84
2022/08/25 03:23:30;;;;;;;;;;;24.40;51.80;;;22.50;54.60;101631.22;12253401;19;19926;-85
2022/08/25 03:27:31;;;;;;;;;;;24.20;51.80;;;22.38;54.63;101627.00;12254692;19;19937;-84
2022/08/25 03:31:33;;;;;;;;;;;24.20;51.80;;;22.10;54.46;101564.78;12249611;19;19922;-85
2022/08/25 03:35:35;;;;;;;;;;;24.10;51.90;;;22.29;54.72;101598.56;12253268;19;19911;-84
2022/08/25 03:39:37;;;;;;;;;;;24.10;52.00;;;22.50;54.28;101631.22;12250307;19;19914;-85
2022/08/25 03:43:39;;;;;;;;;;;24.00;52.00;;;22.39;54.44;101625.19;12252127;19;19925;-85
2022/08/25 03:47:41;;;;;;;;;;;24.10;51.80;;;22.37;54.29;101641.28;12252722;19;19922;-86
2022/08/25 03:51:46;;;;;;;;;;;24.00;51.80;;;22.25;54.21;101642.38;12247700;19;19930;-84
2022/08/25 03:55:48;;;;;;;;;;;23.90;51.70;;;22.16;54.38;101627.25;12247934;19;19918;-84
2022/08/25 03:59:49;;;;;;;;;;;23.90;51.80;;;22.10;54.43;101629.47;12247808;19;19922;-84
2022/08/25 04:03:51;;;;;;;;;;;23.80;51.80;;;22.00;54.22;101625.94;12245893;19;19911;-86
2022/08/25 04:07:52;;;;;;;;;;;23.80;51.80;;;22.00;54.63;101639.25;12250444;19;19911;-85
2022/08/25 04:11:53;;;;;;;;;;;23.80;51.80;;;22.04;54.59;101640.66;12246212;19;19952;-84
2022/08/25 04:15:55;;;;;;;;;;;23.70;51.90;;;22.09;55.01;101641.09;12247667;19;19911;-86
2022/08/25 04:19:56;;;;;;;;;;;23.70;52.00;;;22.08;54.83;101642.06;12247285;19;20366;-85
2022/08/25 04:23:58;;;;;;;;;;;23.70;52.10;;;22.06;55.09;101628.06;12248368;19;19914;-85
2022/08/25 04:27:59;;;;;;;;;;;23.70;52.30;;;22.14;54.93;101645.97;12247580;19;19914;-85
2022/08/25 04:32:01;;;;;;;;;;;23.70;52.30;;;22.21;54.98;101654.31;12240685;19;19974;-86
2022/08/25 04:36:04;;;;;;;;;;;23.70;52.30;;;22.21;55.24;101654.31;12242514;19;19926;-84
2022/08/25 04:40:07;;;;;;;;;;;23.70;52.30;;;22.16;55.01;101654.69;12244537;19;19919;-84
2022/08/25 04:44:08;;;;;;;;;;;23.80;52.60;;;21.75;55.04;101598.03;12245918;19;19953;-84
2022/08/25 04:48:10;;;;;;;;;;;23.70;52.30;;;22.12;55.24;101655.09;12246437;19;19948;-84
2022/08/25 04:52:12;;;;;;;;;;;23.70;52.40;;;22.08;55.08;101654.53;12243898;19;19926;-85
2022/08/25 04:56:23;;;;;;;;;;;23.70;52.40;;;21.93;55.15;101640.78;12243548;19;19938;-84
2022/08/25 05:00:25;;;;;;;;;;;23.70;52.40;;;22.00;54.90;101649.88;12243171;19;19948;-85
2022/08/25 05:04:26;;;;;;;;;;;23.90;52.50;;;21.57;54.92;101575.75;12242953;19;20277;-84
2022/08/25 05:08:28;;;;;;;;;;;23.70;52.50;;;22.05;54.91;101658.28;12244446;19;20245;-85
2022/08/25 05:12:30;;;;;;;;;;;23.70;52.40;;;21.57;55.04;101589.88;12246900;19;19914;-84
2022/08/25 05:16:31;;;;;;;;;;;23.70;52.30;;;22.05;55.24;101676.09;12255868;19;19924;-84
2022/08/25 05:20:36;;;;;;;;;;;23.60;52.40;;;21.95;55.26;101670.72;12253499;19;19911;-86
2022/08/25 05:24:37;;;;;;;;;;;23.60;52.90;;;21.86;55.54;101658.25;12251741;19;19928;-85
2022/08/25 05:28:40;;;;;;;;;;;23.70;52.80;;;22.03;55.05;101680.69;12254402;19;19922;-84
2022/08/25 05:32:42;;;;;;;;;;;23.60;53.10;;;21.87;55.57;101657.25;12247992;19;19926;-85
2022/08/25 05:36:43;;;;;;;;;;;23.60;53.00;;;21.87;55.52;101654.59;12253826;19;19927;-85
2022/08/25 05:40:45;;;;;;;;;;;23.60;53.30;;;21.59;55.41;101603.03;12250798;19;19940;-84
2022/08/25 05:44:47;;;;;;;;;;;23.60;53.00;;;21.70;55.57;101616.22;12251156;19;19919;-85
2022/08/25 05:48:48;;;;;;;;;;;23.60;53.20;;;22.00;55.78;101671.16;12251489;19;19918;-85
2022/08/25 05:52:50;;;;;;;;;;;23.60;52.90;;;22.04;55.56;101685.88;12246496;19;19982;-84
2022/08/25 05:56:52;;;;;;;;;;;23.70;53.80;;;21.96;55.83;101656.47;12249146;19;19940;-84
2022/08/25 06:00:54;;;;;;;;;;;23.60;53.80;;;22.05;55.96;101668.94;12248509;19;19915;-84
2022/08/25 06:04:57;;;;;;;;;;;23.90;54.00;;;22.09;55.70;101675.69;12250326;19;19919;-85
2022/08/25 06:09:00;;;;;;;;;;;23.70;53.80;;;21.94;55.90;101644.28;12250173;19;19919;-86
2022/08/25 06:13:04;;;;;;;;;;;23.70;53.90;;;22.17;56.25;101684.78;12245475;19;19914;-85
2022/08/25 06:17:06;;;;;;;;;;;23.70;53.90;;;22.06;56.31;101665.31;12247707;19;19939;-87
2022/08/25 06:21:12;;;;;;;;;;;23.70;54.50;;;22.16;56.31;101669.81;12245710;19;20319;-84
2022/08/25 06:25:15;;;;;;;;;;;23.80;53.90;;;22.12;56.41;101657.78;12245693;19;19933;-85
2022/08/25 06:29:18;;;;;;;;;;;23.70;54.10;;;22.18;56.11;101662.53;12249191;19;19936;-84
2022/08/25 06:33:20;;;;;;;;;;;23.90;53.80;;;22.27;56.37;101672.38;12247591;19;19911;-85
2022/08/25 06:37:22;;;;;;;;;;;23.80;53.70;;;22.13;56.32;101639.00;12246269;19;20266;-85
2022/08/25 06:41:24;;;;;;;;;;;23.80;54.20;;;22.34;56.63;101665.53;12246473;19;19977;-86
2022/08/25 06:45:26;;;;;;;;;;;23.90;53.60;;;22.22;56.27;101653.31;12248253;19;19928;-84
2022/08/25 06:49:27;;;;;;;;;;;23.90;53.90;;;22.32;56.72;101675.47;12247892;19;19911;-86
2022/08/25 06:53:29;;;;;;;;;;;23.90;54.00;;;22.43;56.41;101680.66;12247014;19;20587;-84
2022/08/25 06:57:33;;;;;;;;;;;24.00;54.00;;;22.24;56.90;101640.72;12245778;19;19918;-85
2022/08/25 07:01:42;;;;;;;;;;;24.10;53.60;;;22.46;56.53;101674.22;12245266;19;19942;-85
2022/08/25 07:05:54;;;;;;;;;;;24.00;54.20;;;22.57;56.65;101687.38;12247446;19;19923;-87
2022/08/25 07:09:55;;;;;;;;;;;24.00;54.40;;;22.52;56.46;101671.84;12245328;19;20306;-86
2022/08/25 07:13:57;;;;;;;;;;;24.10;54.70;;;22.51;56.76;101658.66;12245327;19;19911;-83
2022/08/25 07:17:59;;;;;;;;;;;24.10;54.70;;;22.53;56.70;101654.06;12243853;19;19929;-86
2022/08/25 07:22:00;;;;;;;;;;;24.10;54.50;;;22.68;56.92;101665.09;12241812;19;19911;-86
2022/08/25 07:26:10;;;;;;;;;;;24.30;54.20;;;22.78;56.63;101686.41;12239864;19;20494;-84
2022/08/25 07:30:11;;;;;;;;;;;24.30;54.40;;;22.77;56.87;101660.78;12246724;19;19930;-84
2022/08/25 07:38:33;;;;;;;;;;;24.30;54.20;;;22.82;57.00;101650.50;12244074;19;20234;-87
2022/08/25 07:42:36;;;;;;;;;;;24.60;54.40;;;22.90;56.98;101661.31;12238034;19;19937;-85
2022/08/25 07:46:41;;;;;;;;;;;24.70;55.20;;;23.00;56.65;101675.47;12231904;19;19922;-84
2022/08/25 07:50:44;;;;;;;;;;;24.50;55.00;;;22.97;57.10;101665.13;12237500;19;20345;-85
2022/08/25 07:54:45;;;;;;;;;;;24.50;54.50;;;22.91;57.42;101655.84;12236084;19;20360;-84
2022/08/25 07:58:47;;;;;;;;;;;24.50;54.20;;;23.07;57.00;101667.78;12237478;19;19922;-86
2022/08/25 08:02:48;;;;;;;;;;;24.60;54.80;;;23.03;57.43;101653.88;12235481;19;19915;-85
2022/08/25 08:06:50;;;;;;;;;;;24.60;54.80;;;23.06;56.88;101650.09;12239885;19;20287;-85
2022/08/25 08:10:51;;;;;;;;;;;24.60;55.00;;;23.21;57.05;101667.31;12238551;19;19923;-87
2022/08/25 08:14:52;;;;;;;;;;;24.80;54.70;;;23.18;57.10;101647.13;12240883;19;19930;-85
2022/08/25 08:18:55;;;;;;;;;;;24.70;55.70;;;23.23;57.18;101654.69;12240296;19;19925;-84
2022/08/25 08:22:57;;;;;;;;;;;24.70;54.90;;;23.35;57.06;101668.69;12236526;19;19918;-86
2022/08/25 08:26:58;;;;;;;;;;;24.90;55.10;;;23.45;57.27;101671.31;12243708;19;20325;-87
2022/08/25 08:31:00;;;;;;;;;;;24.90;54.70;;;23.43;57.19;101655.47;12241465;19;19926;-87
2022/08/25 08:35:02;;;;;;;;;;;25.00;54.90;;;23.59;57.01;101670.84;12240075;19;20548;-85
2022/08/25 08:39:03;;;;;;;;;;;25.00;54.90;;;23.39;57.06;101627.44;12239346;19;19914;-84
2022/08/25 08:43:09;;;;;;;;;;;25.10;54.80;;;23.67;57.32;101654.94;12236210;19;19967;-86
2022/08/25 08:47:36;;;;;;;;;;;25.40;54.90;;;23.72;57.17;101650.03;12249437;19;19918;-85
2022/08/25 08:51:50;;;;;;;;;;;25.20;54.60;;;23.81;57.52;101646.47;12251659;19;20239;-84
2022/08/25 08:55:57;;;;;;;;;;;25.20;54.60;;;23.88;57.02;101653.91;12254394;19;20358;-84
2022/08/25 09:00:01;;;;;;;;;;;25.70;54.90;;;23.88;57.22;101645.91;12252618;19;19910;-85
2022/08/25 09:04:15;;;;;;;;;;;25.30;54.50;;;23.94;57.29;101651.47;12254156;19;19914;-84
2022/08/25 09:08:17;;;;;;;;;;;25.40;55.20;;;23.92;57.28;101645.41;12252806;19;19918;-84
2022/08/25 09:12:50;;;;;;;;;;;25.40;55.10;;;24.02;57.59;101650.72;12249072;19;19925;-85
2022/08/25 09:16:54;;;;;;;;;;;25.50;54.90;;;24.13;57.16;101642.50;12251918;19;19932;-86
2022/08/25 09:21:02;;;;;;;;;;;25.70;55.20;;;24.19;57.64;101628.53;12250228;19;19929;-84
2022/08/25 09:25:20;;;;;;;;;;;25.60;55.80;;;24.24;57.62;101610.22;12251688;19;19932;-82
2022/08/25 09:29:24;;;;;;;;;;;25.70;55.10;;;24.45;57.43;101633.16;12251879;19;19986;-84
2022/08/25 09:33:28;;;;;;;;;;;25.80;55.20;;;24.46;57.09;101616.97;12251911;19;20344;-85
2022/08/25 09:37:30;;;;;;;;;;;25.90;55.70;;;24.66;57.13;101614.97;12250826;19;19923;-85
2022/08/25 09:41:46;;;;;;;;;;;26.00;55.70;;;24.82;57.47;101595.56;12248476;19;19939;-84
2022/08/25 09:46:22;;;;;;;;;;;26.20;55.60;;;25.22;57.62;101617.34;12252979;19;19923;-85
2022/08/25 09:50:23;;;;;;;;;;;26.40;55.60;;;25.48;57.31;101614.66;12251016;19;19923;-85
2022/08/25 09:54:26;;;;;;;;;;;26.70;55.70;;;25.58;57.54;101608.19;12249783;19;19948;-86
2022/08/25 09:58:27;;;;;;;;;;;26.90;55.30;;;25.59;56.79;101588.44;12248011;19;19919;-85
2022/08/25 10:02:28;;;;;;;;;;;27.30;55.40;;;25.61;57.31;101569.56;12249826;19;19960;-86
2022/08/25 10:06:46;;;;;;;;;;;27.20;55.30;;;25.92;56.73;101591.22;12250686;19;19906;-86
2022/08/25 10:10:54;;;;;;;;;;;27.30;55.30;;;26.00;56.99;101593.91;12254801;19;19918;-86
2022/08/25 10:14:56;;;;;;;;;;;27.40;55.20;;;26.23;56.77;101594.13;12255271;19;19935;-85
2022/08/25 10:19:27;;;;;;;;;;;27.50;55.00;;;26.22;57.03;101571.06;12254101;19;20420;-86
2022/08/25 10:23:31;;;;;;;;;;;27.70;55.10;;;26.10;56.79;101513.47;12253704;19;20330;-85
2022/08/25 10:27:51;;;;;;;;;;;27.80;55.10;;;26.78;57.19;101589.13;12252488;19;19922;-86
2022/08/25 10:32:03;;;;;;;;;;;28.00;55.10;;;26.98;56.48;101586.88;12251678;19;19957;-83
2022/08/25 10:36:08;;;;;;;;;;;28.20;55.00;;;27.17;56.71;101581.19;12253925;19;19911;-83
2022/08/25 10:40:25;;;;;;;;;;;28.40;55.00;;;27.27;56.77;101557.66;12250668;19;19915;-85
2022/08/25 10:49:45;;;;;;;;;;;28.80;54.60;;;27.61;56.09;101569.91;12254383;19;19926;-86
2022/08/25 10:54:04;;;;;;;;;;;28.80;54.50;;;27.76;56.81;101559.25;12251178;19;19922;-85
2022/08/25 10:58:44;;;;;;;;;;;29.00;54.70;;;27.86;56.23;101545.63;12250997;19;19915;-84
2022/08/25 11:03:07;;;;;;;;;;;29.20;54.50;;;27.88;56.20;101538.25;12249708;19;19934;-85
2022/08/25 11:07:49;;;;;;;;;;;29.20;54.10;;;27.87;56.11;101520.44;12247382;19;19923;-86
2022/08/25 11:12:01;;;;;;;;;;;29.40;54.40;;;28.10;56.02;101532.03;12241949;19;20304;-85
2022/08/25 11:16:14;;;;;;;;;;;29.40;54.40;;;28.25;56.05;101524.03;12251403;19;19921;-86
2022/08/25 11:20:20;;;;;;;;;;;29.50;54.40;;;28.35;55.78;101508.44;12253563;19;19914;-85
2022/08/25 11:24:50;;;;;;;;;;;29.70;54.40;;;28.61;55.92;101513.44;12254509;19;20342;-85
2022/08/25 11:29:10;;;;;;;;;;;29.80;54.40;;;28.73;55.89;101507.59;12255725;19;19911;-85
2022/08/25 11:33:16;;;;;;;;;;;30.00;54.20;;;28.88;55.80;101503.06;12246341;19;19935;-84
2022/08/25 11:37:27;;;;;;;;;;;30.10;54.30;;;29.07;55.76;101507.88;12246840;19;19915;-85
2022/08/25 11:41:58;;;;;;;;;;;30.30;54.60;;;29.06;55.49;101500.84;12246874;19;20008;-86
2022/08/25 11:46:16;;;;;;;;;;;30.40;54.20;;;28.97;55.21;101482.28;12249505;19;20297;-85
2022/08/25 11:50:29;;;;;;;;;;;30.50;53.60;;;29.08;55.65;101495.28;12258050;19;20019;-86
2022/08/25 11:54:41;;;;;;;;;;;30.40;53.60;;;29.08;55.07;101498.81;12257419;19;21663;-85
2022/08/25 11:58:50;;;;;;;;;;;30.50;53.60;;;29.05;55.07;101487.59;12246836;19;19911;-86
2022/08/25 12:02:52;;;;;;;;;;;30.50;53.00;;;29.02;55.13;101485.25;12245227;19;19922;-85
2022/08/25 12:07:06;;;;;;;;;;;30.50;53.60;;;29.01;55.15;101491.66;12248495;19;20235;-86
2022/08/25 12:11:09;;;;;;;;;;;30.50;53.40;;;28.55;55.00;101406.69;12246062;19;20249;-86
2022/08/25 12:15:23;;;;;;;;;;;30.40;52.60;;;28.93;55.16;101468.38;12247792;19;19974;-84
2022/08/25 12:19:34;;;;;;;;;;;30.40;53.00;;;28.93;55.12;101451.41;12243577;19;19948;-85
2022/08/25 12:23:43;;;;;;;;;;;30.40;53.40;;;29.15;55.18;101461.22;12245465;19;19919;-85
2022/08/25 12:28:05;;;;;;;;;;;30.50;53.30;;;29.13;54.90;101430.97;12246762;19;19940;-85
2022/08/25 12:32:30;;;;;;;;;;;30.50;52.20;;;29.39;54.89;101453.84;12246132;19;19915;-85
2022/08/25 12:36:33;;;;;;;;;;;30.60;53.30;;;29.42;54.88;101440.81;12244636;19;19971;-85
2022/08/25 12:40:52;;;;;;;;;;;30.70;52.80;;;29.43;54.64;101423.63;12244975;19;19958;-84
2022/08/25 12:45:18;;;;;;;;;;;30.80;52.60;;;29.59;54.46;101435.19;12246219;19;20312;-85
2022/08/25 12:49:33;;;;;;;;;;;30.90;52.60;;;29.59;54.16;101414.47;12245851;19;20247;-85
2022/08/25 12:54:09;;;;;;;;;;;30.90;52.80;;;29.70;53.82;101415.84;12246037;19;19966;-86
2022/08/25 12:58:11;;;;;;;;;;;31.00;52.40;;;29.85;53.72;101423.84;12238345;19;19915;-85
2022/08/25 13:02:40;;;;;;;;;;;31.10;53.20;;;29.93;53.75;101416.44;12243007;19;19928;-85
2022/08/25 13:07:03;;;;;;;;;;;31.20;52.80;;;30.00;53.79;101411.09;12250125;19;19953;-85
2022/08/25 13:11:09;;;;;;;;;;;31.30;52.70;;;30.13;53.44;101421.97;12243891;19;19925;-86
2022/08/25 13:15:14;;;;;;;;;;;31.40;52.10;;;30.13;53.55;101415.75;12247466;19;19933;-86
2022/08/25 13:19:18;;;;;;;;;;;31.50;52.20;;;30.19;53.47;101423.91;12241307;19;19919;-85
2022/08/25 13:23:26;;;;;;;;;;;31.50;51.60;;;29.86;53.65;101377.03;12244292;19;19911;-86
2022/08/25 13:27:28;;;;;;;;;;;31.50;51.50;;;29.76;53.63;101362.06;12244858;19;20333;-85
2022/08/25 13:31:30;;;;;;;;;;;31.50;51.60;;;30.07;53.63;101413.84;12244340;19;19918;-85
2022/08/25 13:35:31;;;;;;;;;;;31.50;52.00;;;30.06;53.51;101399.56;12256040;19;19925;-86
2022/08/25 13:39:34;;;;;;;;;;;31.50;51.50;;;30.22;53.52;101406.50;12252625;19;19919;-85
2022/08/25 13:43:37;;;;;;;;;;;31.50;52.40;;;30.20;53.13;101382.44;12254550;19;19981;-85
2022/08/25 13:47:40;;;;;;;;;;;31.60;51.60;;;30.34;53.41;101386.06;12252512;19;19910;-85
2022/08/25 13:51:51;;;;;;;;;;;31.70;50.30;;;30.40;53.13;101370.97;12251094;19;19907;-85
2022/08/25 13:55:56;;;;;;;;;;;31.70;51.70;;;30.47;52.78;101384.50;12251912;19;19974;-85
2022/08/25 14:00:07;;;;;;;;;;;31.80;51.20;;;30.45;52.81;101386.53;12251791;19;19939;-85
2022/08/25 14:04:30;;;;;;;;;;;31.80;51.50;;;30.39;52.72;101386.31;12253937;19;20333;-85
2022/08/25 14:08:43;;;;;;;;;;;31.80;50.20;;;30.30;52.75;101367.78;12255313;19;19915;-85
2022/08/25 14:12:46;;;;;;;;;;;31.70;50.80;;;30.29;52.79;101363.44;12254874;19;19919;-86
2022/08/25 14:16:57;;;;;;;;;;;31.70;50.70;;;30.43;52.71;101378.63;12253925;19;19958;-86
2022/08/25 14:21:01;;;;;;;;;;;31.70;51.00;;;30.47;52.72;101362.91;12254046;19;19930;-85
2022/08/25 14:25:04;;;;;;;;;;;32.00;50.50;;;30.55;52.84;101351.97;12254381;19;19907;-85
2022/08/25 14:29:06;;;;;;;;;;;31.80;51.00;;;30.64;52.58;101353.44;12253509;19;19911;-85
2022/08/25 14:33:08;;;;;;;;;;;31.90;51.30;;;30.75;52.31;101357.41;12251883;19;19942;-85
2022/08/25 14:37:16;;;;;;;;;;;32.00;51.20;;;30.78;52.61;101344.34;12247912;19;19943;-86
2022/08/25 14:41:18;;;;;;;;;;;32.00;51.00;;;30.83;52.15;101333.81;12247946;19;19927;-85
2022/08/25 14:45:19;;;;;;;;;;;32.10;50.40;;;30.83;51.96;101331.13;12250476;19;20362;-85
2022/08/25 14:49:25;;;;;;;;;;;32.10;50.70;;;30.81;52.14;101341.31;12254602;19;19932;-85
2022/08/25 14:53:27;;;;;;;;;;;32.10;50.80;;;30.58;51.81;101313.81;12253927;19;19926;-86
2022/08/25 14:57:29;;;;;;;;;;;32.30;50.60;;;30.61;51.87;101327.72;12255054;19;19914;-85
2022/08/25 15:01:31;;;;;;;;;;;32.10;50.40;;;30.55;52.06;101306.97;12252787;19;19936;-85
2022/08/25 15:05:32;;;;;;;;;;;32.00;50.30;;;30.59;52.05;101304.69;12255726;19;19978;-86
2022/08/25 15:09:33;;;;;;;;;;;32.00;50.20;;;30.47;51.84;101284.75;12254971;19;19947;-86
2022/08/25 15:13:35;;;;;;;;;;;32.00;49.10;;;30.37;51.56;101266.25;12254712;19;20257;-85
2022/08/25 15:17:38;;;;;;;;;;;32.00;50.40;;;30.65;51.35;101299.31;12247198;19;19958;-85
2022/08/25 15:21:41;;;;;;;;;;;32.00;50.30;;;30.19;51.10;101237.13;12251135;19;20333;-85
2022/08/25 15:25:44;;;;;;;;;;;32.00;50.50;;;30.62;51.24;101313.22;12253995;19;19926;-85
2022/08/25 15:29:46;;;;;;;;;;;32.00;50.20;;;30.55;51.40;101295.34;12253233;19;19911;-86
2022/08/25 15:33:47;;;;;;;;;;;31.90;49.90;;;30.51;51.25;101288.69;12253274;19;20338;-85
2022/08/25 15:37:49;;;;;;;;;;;31.90;50.20;;;30.29;51.59;101253.78;12252823;19;19915;-85
2022/08/25 15:41:51;;;;;;;;;;;31.90;49.90;;;30.36;51.47;101268.13;12251521;19;19919;-86
2022/08/25 15:45:52;;;;;;;;;;;31.90;50.10;;;30.56;51.42;101292.44;12253563;19;19944;-85
2022/08/25 15:50:05;;;;;;;;;;;31.90;50.00;;;30.61;51.69;101298.03;12252158;19;20384;-85
2022/08/25 15:54:06;;;;;;;;;;;31.90;50.10;;;30.53;51.39;101282.06;12247153;19;19923;-85
2022/08/25 15:58:08;;;;;;;;;;;31.90;50.30;;;30.49;51.22;101278.13;12251559;19;19915;-85
2022/08/25 16:02:10;;;;;;;;;;;31.90;50.30;;;30.50;51.00;101287.03;12247870;19;19990;-86
2022/08/25 16:06:12;;;;;;;;;;;31.90;50.20;;;30.40;51.42;101271.22;12250619;19;19923;-86
2022/08/25 16:10:14;;;;;;;;;;;31.80;49.80;;;30.40;51.33;101268.53;12250223;19;19953;-85
2022/08/25 16:14:15;;;;;;;;;;;31.80;49.70;;;30.27;51.09;101241.53;12250997;19;19986;-85
2022/08/25 16:18:17;;;;;;;;;;;31.70;49.90;;;30.34;51.05;101253.19;12248709;19;20535;-85
2022/08/25 16:22:18;;;;;;;;;;;31.70;50.00;;;30.21;51.05;101237.75;12249134;19;19925;-86
2022/08/25 16:26:20;;;;;;;;;;;31.70;50.40;;;30.03;50.72;101213.22;12252336;19;19935;-84
2022/08/25 16:30:21;;;;;;;;;;;31.70;50.20;;;30.19;51.15;101242.50;12250287;19;20241;-86
2022/08/25 16:34:23;;;;;;;;;;;31.70;50.30;;;30.24;51.17;101255.41;12249906;19;19931;-85
2022/08/25 16:38:25;;;;;;;;;;;31.60;49.90;;;30.13;51.00;101248.72;12248706;19;19915;-86
2022/08/25 16:42:27;;;;;;;;;;;31.50;50.00;;;30.03;50.98;101238.34;12246760;19;19919;-85
2022/08/25 16:46:29;;;;;;;;;;;31.50;50.00;;;29.79;51.02;101201.97;12249440;19;19915;-85
2022/08/25 16:50:31;;;;;;;;;;;31.60;50.00;;;30.05;51.03;101244.31;12247873;19;19960;-87
2022/08/25 16:58:54;;;;;;;;;;;31.50;50.00;;;30.00;51.02;101244.09;12248784;19;19918;-87
2022/08/25 17:03:00;;;;;;;;;;;31.40;50.00;;;29.93;51.08;101236.00;12247319;19;20280;-85
2022/08/25 17:07:02;;;;;;;;;;;31.30;49.90;;;29.92;51.21;101242.44;12254771;19;19914;-87
2022/08/25 17:11:15;;;;;;;;;;;31.30;50.00;;;29.87;51.20;101238.66;12260659;19;19919;-87
2022/08/25 17:15:21;;;;;;;;;;;31.30;49.80;;;29.76;51.31;101227.44;12260720;19;19915;-87
2022/08/25 17:19:24;;;;;;;;;;;31.20;49.80;;;29.75;51.20;101238.38;12257208;19;19911;-86
2022/08/25 17:23:26;;;;;;;;;;;31.20;49.70;;;29.81;51.23;101248.34;12259287;19;19929;-86
2022/08/25 17:27:27;;;;;;;;;;;31.20;49.80;;;29.67;50.91;101227.78;12255928;19;19970;-86
2022/08/25 17:31:29;;;;;;;;;;;31.20;49.90;;;29.66;51.25;101234.19;12258864;19;19918;-89
2022/08/25 17:35:30;;;;;;;;;;;31.10;49.80;;;29.72;51.06;101252.25;12259558;19;19919;-86
2022/08/25 17:39:32;;;;;;;;;;;31.10;49.80;;;29.44;51.11;101207.31;12257658;19;19911;-87
2022/08/25 17:43:36;;;;;;;;;;;31.20;49.90;;;29.18;51.12;101180.25;12260019;19;19933;-87
2022/08/25 17:47:37;;;;;;;;;;;31.00;49.70;;;29.42;50.98;101228.22;12259354;19;19918;-86
2022/08/25 17:51:39;;;;;;;;;;;31.00;49.80;;;29.42;51.22;101238.16;12256466;19;19926;-87
2022/08/25 17:55:41;;;;;;;;;;;30.90;49.80;;;29.43;51.38;101251.41;12257051;19;19927;-84
2022/08/25 17:59:42;;;;;;;;;;;30.90;49.80;;;29.20;51.02;101229.31;12252089;19;20362;-86
2022/08/25 18:03:44;;;;;;;;;;;30.80;49.70;;;29.27;51.30;101246.31;12258763;19;19925;-84
2022/08/25 18:07:46;;;;;;;;;;;30.70;49.70;;;29.21;50.92;101252.47;12259890;19;19923;-85
2022/08/25 18:11:48;;;;;;;;;;;30.70;49.80;;;29.06;51.12;101248.03;12258689;19;19919;-86
2022/08/25 18:15:50;;;;;;;;;;;30.60;49.70;;;29.08;51.29;101267.50;12264406;19;19921;-86
2022/08/25 18:19:52;;;;;;;;;;;30.50;49.70;;;28.95;51.39;101255.72;12259007;19;20400;-86
2022/08/25 18:23:54;;;;;;;;;;;30.50;49.80;;;28.94;51.24;101264.84;12258881;19;20593;-85
2022/08/25 18:27:56;;;;;;;;;;;30.40;49.80;;;28.53;51.31;101203.63;12259661;19;20350;-85
2022/08/25 18:31:58;;;;;;;;;;;30.30;49.80;;;28.69;51.15;101243.72;12254318;19;20333;-85
2022/08/25 18:36:00;;;;;;;;;;;30.30;49.80;;;28.45;51.06;101218.03;12258235;19;19917;-85